createdAt,value
2022-08-25T00:01:00.310Z,29.60
2022-08-25T00:06:06.710Z,29.70
2022-08-25T00:11:19.195Z,29.70
2022-08-25T00:16:25.920Z,29.80
2022-08-25T00:21:33.321Z,29.80
2022-08-25T00:26:42.660Z,29.90
2022-08-25T00:31:49.146Z,29.90
2022-08-25T00:36:55.370Z,30.00
2022-08-25T00:42:02.102Z,30.00
2022-08-25T00:47:08.698Z,30.00
2022-08-25T00:52:36.853Z,30.00
2022-08-25T00:57:53.946Z,29.90
2022-08-25T01:03:00.316Z,29.80
2022-08-25T01:08:08.367Z,29.80
2022-08-25T01:13:46.347Z,29.70
2022-08-25T01:18:56.530Z,29.60
2022-08-25T01:24:03.473Z,29.70
2022-08-25T01:29:26.966Z,29.30
2022-08-25T01:34:35.710Z,28.90
2022-08-25T01:39:41.906Z,28.30
2022-08-25T01:44:49.206Z,28.00
2022-08-25T01:49:54.846Z,27.70
2022-08-25T01:55:00.798Z,27.50
2022-08-25T02:00:10.252Z,27.40
2022-08-25T02:05:22.818Z,27.20
2022-08-25T02:10:29.349Z,27.40
2022-08-25T02:15:34.718Z,27.50
2022-08-25T02:20:40.703Z,27.60
2022-08-25T02:25:46.308Z,27.50
2022-08-25T02:31:01.300Z,27.40
2022-08-25T02:36:08.980Z,27.40
2022-08-25T02:41:21.789Z,27.40
2022-08-25T02:46:33.685Z,26.10
2022-08-25T02:51:39.750Z,25.90
2022-08-25T02:56:45.623Z,25.70
2022-08-25T03:01:51.456Z,25.80
2022-08-25T03:06:56.817Z,26.00
2022-08-25T03:12:03.560Z,25.60
2022-08-25T03:17:10.559Z,25.30
2022-08-25T03:22:16.374Z,25.00
2022-08-25T03:27:21.667Z,25.90
2022-08-25T03:32:27.360Z,27.80
2022-08-25T03:37:33.581Z,28.70
2022-08-25T03:42:45.022Z,28.40
2022-08-25T03:47:52.438Z,28.60
2022-08-25T03:53:00.735Z,29.00
2022-08-25T03:58:06.923Z,29.00
2022-08-25T04:03:12.807Z,29.50
2022-08-25T04:08:18.138Z,29.40
2022-08-25T04:13:24.996Z,29.20
2022-08-25T04:18:32.572Z,29.30
2022-08-25T04:23:39.768Z,29.90
2022-08-25T04:28:46.758Z,30.40
2022-08-25T04:33:52.870Z,29.90
2022-08-25T04:38:58.772Z,29.80
2022-08-25T04:44:05.496Z,30.00
2022-08-25T04:49:11.801Z,30.20
2022-08-25T04:54:22.969Z,30.70
2022-08-25T04:59:30.517Z,31.00
2022-08-25T05:04:38.845Z,31.10
2022-08-25T05:09:44.516Z,30.30
2022-08-25T05:14:50.211Z,29.70
2022-08-25T05:19:55.908Z,29.70
2022-08-25T05:25:01.693Z,30.00
2022-08-25T05:30:08.352Z,30.10
2022-08-25T05:35:14.172Z,30.30
2022-08-25T05:40:19.828Z,31.00
2022-08-25T05:45:25.505Z,31.60
2022-08-25T05:50:31.311Z,32.20
2022-08-25T05:55:37.340Z,33.10
2022-08-25T06:00:43.262Z,33.90
2022-08-25T06:05:49.126Z,33.90
2022-08-25T06:10:58.188Z,33.10
2022-08-25T06:16:04.182Z,32.00
2022-08-25T06:21:15.900Z,31.10
2022-08-25T06:26:22.538Z,30.70
2022-08-25T06:31:28.218Z,30.60
2022-08-25T06:36:34.206Z,30.50
2022-08-25T06:41:40.639Z,30.70
2022-08-25T06:46:46.002Z,31.00
2022-08-25T06:51:52.059Z,31.30
2022-08-25T06:56:58.572Z,31.20
2022-08-25T07:02:05.680Z,30.80
2022-08-25T07:07:11.479Z,30.20
2022-08-25T07:12:17.473Z,29.90
2022-08-25T07:17:25.175Z,29.50
2022-08-25T07:22:30.818Z,28.40
2022-08-25T07:27:36.332Z,27.80
2022-08-25T07:32:43.146Z,27.30
2022-08-25T07:37:53.034Z,26.80
2022-08-25T07:43:02.595Z,26.80
2022-08-25T07:48:17.795Z,26.90
2022-08-25T07:53:27.370Z,27.10
2022-08-25T07:58:32.910Z,27.50
2022-08-25T08:03:50.994Z,27.60
2022-08-25T08:08:57.851Z,27.70
2022-08-25T08:14:05.681Z,28.00
2022-08-25T08:19:11.365Z,28.20
2022-08-25T08:24:40.675Z,28.40
2022-08-25T08:29:44.254Z,28.60
2022-08-25T08:34:51.196Z,28.50
2022-08-25T08:39:57.464Z,29.00
2022-08-25T08:45:51.991Z,29.50
2022-08-25T08:51:23.219Z,29.50
2022-08-25T08:56:33.112Z,29.50
2022-08-25T09:01:53.262Z,29.40
2022-08-25T09:07:06.672Z,29.30
2022-08-25T09:12:27.844Z,29.20
2022-08-25T09:17:54.706Z,29.10
2022-08-25T09:23:16.272Z,29.00
2022-08-25T09:28:45.045Z,29.00
2022-08-25T09:33:50.805Z,28.90
2022-08-25T09:38:56.223Z,28.80
2022-08-25T09:44:03.252Z,28.80
2022-08-25T09:49:18.399Z,28.70
2022-08-25T09:54:36.330Z,28.60
2022-08-25T09:59:57.759Z,28.50
2022-08-25T10:05:23.492Z,28.50
2022-08-25T10:10:42.023Z,28.30
2022-08-25T10:15:47.892Z,27.60
2022-08-25T10:21:04.832Z,26.20
2022-08-25T10:26:45.267Z,26.20
2022-08-25T10:32:20.047Z,25.80
2022-08-25T10:37:47.298Z,25.70
2022-08-25T10:43:12.948Z,25.50
2022-08-25T10:48:47.672Z,25.20
2022-08-25T10:54:06.919Z,25.00
2022-08-25T10:59:31.090Z,24.90
2022-08-25T11:04:51.562Z,25.10
2022-08-25T11:10:02.329Z,25.10
2022-08-25T11:15:22.381Z,25.10
2022-08-25T11:20:39.816Z,24.80
2022-08-25T11:25:50.025Z,24.90
2022-08-25T11:31:01.152Z,25.30
2022-08-25T11:36:29.671Z,25.30
2022-08-25T11:42:00.202Z,25.40
2022-08-25T11:47:31.879Z,25.60
2022-08-25T11:52:37.378Z,26.00
2022-08-25T11:57:43.557Z,25.80
2022-08-25T12:02:52.682Z,26.00
2022-08-25T12:08:25.313Z,26.10
2022-08-25T12:13:43.023Z,26.00
2022-08-25T12:18:50.501Z,25.80
2022-08-25T12:24:14.965Z,25.50
2022-08-25T12:29:43.773Z,25.10
2022-08-25T12:35:17.614Z,25.10
2022-08-25T12:40:49.901Z,25.10
2022-08-25T12:46:18.165Z,25.10
2022-08-25T12:51:26.140Z,25.10
2022-08-25T12:56:39.517Z,25.20
2022-08-25T13:02:22.308Z,25.20
2022-08-25T13:07:32.482Z,25.30
2022-08-25T13:12:49.782Z,25.20
2022-08-25T13:17:55.556Z,25.30
2022-08-25T13:23:04.118Z,25.30
2022-08-25T13:28:20.901Z,25.30
2022-08-25T13:33:28.121Z,25.30
2022-08-25T13:38:34.059Z,25.40
2022-08-25T13:43:41.902Z,25.30
2022-08-25T13:48:49.793Z,25.30
2022-08-25T13:54:03.241Z,25.30
2022-08-25T13:59:26.716Z,25.20
2022-08-25T14:04:51.374Z,25.30
2022-08-25T14:09:57.614Z,25.20
2022-08-25T14:15:13.045Z,25.20
2022-08-25T14:20:28.814Z,25.80
2022-08-25T14:25:37.029Z,25.90
2022-08-25T14:31:05.326Z,26.00
2022-08-25T14:36:11.903Z,26.10
2022-08-25T14:41:17.661Z,26.00
2022-08-25T14:46:26.773Z,26.00
2022-08-25T14:51:36.059Z,26.00
2022-08-25T14:56:43.029Z,25.70
2022-08-25T15:01:50.053Z,25.80
2022-08-25T15:07:02.802Z,25.90
2022-08-25T15:12:10.633Z,25.80
2022-08-25T15:17:18.747Z,25.90
2022-08-25T15:22:25.004Z,25.80
2022-08-25T15:27:34.060Z,25.80
2022-08-25T15:32:39.654Z,25.60
2022-08-25T15:37:45.426Z,25.70
2022-08-25T15:42:51.115Z,25.80
2022-08-25T15:47:56.621Z,25.80
2022-08-25T15:53:02.443Z,25.90
2022-08-25T15:58:08.879Z,26.10
2022-08-25T16:03:14.430Z,26.00
2022-08-25T16:08:19.940Z,26.00
2022-08-25T16:13:25.222Z,26.00
2022-08-25T16:18:30.732Z,26.00
2022-08-25T16:23:37.081Z,25.90
2022-08-25T16:28:44.253Z,25.60
2022-08-25T16:33:51.564Z,25.50
2022-08-25T16:39:03.291Z,25.40
2022-08-25T16:44:15.416Z,25.50
2022-08-25T16:49:21.355Z,25.50
2022-08-25T16:54:48.348Z,25.60
2022-08-25T16:59:53.824Z,25.50
2022-08-25T17:05:00.742Z,25.60
2022-08-25T17:10:12.558Z,25.70
2022-08-25T17:15:23.896Z,25.80
2022-08-25T17:20:29.981Z,25.90
2022-08-25T17:25:41.289Z,26.10
2022-08-25T17:30:48.528Z,26.10
2022-08-25T17:35:56.605Z,26.00
2022-08-25T17:41:05.257Z,25.80
2022-08-25T17:46:11.984Z,25.50
2022-08-25T17:51:19.002Z,25.60
2022-08-25T17:56:25.710Z,25.50
2022-08-25T18:01:36.123Z,25.40
2022-08-25T18:06:46.355Z,25.20
2022-08-25T18:11:54.068Z,25.30
2022-08-25T18:16:59.519Z,25.20
2022-08-25T18:22:07.660Z,25.20
2022-08-25T18:27:13.817Z,25.10
2022-08-25T18:32:20.131Z,25.10
2022-08-25T18:37:49.924Z,25.10
2022-08-25T18:42:59.247Z,25.00
2022-08-25T18:48:06.040Z,24.90
2022-08-25T18:53:13.540Z,24.80
2022-08-25T18:58:20.924Z,24.80
2022-08-25T19:03:29.635Z,24.90
2022-08-25T19:08:35.275Z,25.00
2022-08-25T19:13:41.198Z,25.10
2022-08-25T19:18:47.845Z,25.20
2022-08-25T19:23:54.621Z,25.10
2022-08-25T19:28:59.908Z,25.00
2022-08-25T19:34:06.293Z,24.80
2022-08-25T19:39:12.890Z,25.00
2022-08-25T19:44:19.280Z,25.10
2022-08-25T19:49:31.834Z,25.00
2022-08-25T19:54:44.421Z,24.90
2022-08-25T19:59:50.188Z,24.90
2022-08-25T20:05:00.749Z,25.00
2022-08-25T20:10:09.281Z,25.00
2022-08-25T20:15:20.706Z,25.10
2022-08-25T20:20:32.419Z,25.00
2022-08-25T20:25:40.324Z,25.00
2022-08-25T20:30:47.390Z,24.90
2022-08-25T20:35:53.804Z,24.80
2022-08-25T20:41:02.988Z,24.80
2022-08-25T20:46:09.417Z,24.80
2022-08-25T20:51:15.054Z,24.80
2022-08-25T20:56:24.557Z,24.80
2022-08-25T21:01:39.719Z,24.60
2022-08-25T21:06:47.102Z,24.60
2022-08-25T21:11:55.132Z,24.60
2022-08-25T21:17:01.239Z,24.60
2022-08-25T21:22:07.279Z,24.60
2022-08-25T21:27:13.494Z,24.50
2022-08-25T21:32:20.592Z,24.50
2022-08-25T21:37:26.749Z,24.40
2022-08-25T21:42:32.811Z,24.30
2022-08-25T21:47:43.684Z,24.30
2022-08-25T21:52:54.773Z,24.30
2022-08-25T21:58:00.538Z,24.30
2022-08-25T22:03:06.635Z,24.20
2022-08-25T22:08:12.086Z,24.20
2022-08-25T22:13:17.670Z,24.20
2022-08-25T22:18:24.623Z,24.20
2022-08-25T22:23:29.830Z,24.20
2022-08-25T22:28:38.984Z,24.30
2022-08-25T22:33:49.176Z,24.40
2022-08-25T22:38:55.085Z,24.50
2022-08-25T22:44:04.928Z,24.50
2022-08-25T22:49:10.923Z,24.50
2022-08-25T22:54:16.625Z,24.60
2022-08-25T22:59:22.676Z,24.60
2022-08-25T23:04:28.575Z,24.60
2022-08-25T23:09:34.262Z,24.70
2022-08-25T23:14:44.372Z,24.70
2022-08-25T23:19:50.188Z,24.70
2022-08-25T23:24:55.790Z,24.80
2022-08-25T23:30:03.028Z,24.80
2022-08-25T23:35:09.861Z,24.80
2022-08-25T23:40:19.173Z,24.90
2022-08-25T23:45:24.841Z,25.00
2022-08-25T23:50:31.279Z,25.10
2022-08-25T23:55:36.541Z,25.20
